Time;durP1;ratioP1;P1;durP2;ratioP2;P2;SDS_P1;SDS_P2;PMS_P1;PMS_P2;Temp;Humidity;BMP_temperature;BMP_pressure;BME280_temperature;BME280_humidity;BME280_pressure;Samples;Min_cycle;Max_cycle;Signal;HPM_P1;HPM_P2
2021/06/29 00:02:17;;;;;;;20.17;15.57;;;18.00;99.90;;;;;;5070242;28;20064;-76
2021/06/29 00:04:43;;;;;;;12.63;9.82;;;17.90;99.90;;;;;;5070246;28;20052;-76
2021/06/29 00:07:09;;;;;;;15.15;12.23;;;17.80;99.90;;;;;;5054570;28;20061;-77
2021/06/29 00:09:34;;;;;;;17.10;14.20;;;17.90;99.90;;;;;;5052528;28;20487;-77
2021/06/29 00:12:01;;;;;;;17.13;14.52;;;18.00;99.90;;;;;;5069663;28;20111;-76
2021/06/29 00:14:27;;;;;;;14.35;12.13;;;18.00;99.90;;;;;;5054049;28;20376;-78
2021/06/29 00:16:53;;;;;;;14.57;12.65;;;18.10;99.90;;;;;;5052835;28;20093;-77
2021/06/29 00:19:19;;;;;;;10.70;9.77;;;18.10;99.90;;;;;;5061935;28;20024;-78
2021/06/29 00:21:47;;;;;;;13.77;10.60;;;17.80;99.90;;;;;;5074455;28;20027;-77
2021/06/29 00:24:12;;;;;;;11.07;10.00;;;17.60;99.90;;;;;;5075499;28;20039;-77
2021/06/29 00:26:38;;;;;;;8.63;7.90;;;17.60;99.90;;;;;;5075648;28;20028;-77
2021/06/29 00:29:04;;;;;;;8.95;6.95;;;17.60;99.90;;;;;;5075084;28;20029;-77
2021/06/29 00:31:29;;;;;;;8.68;7.80;;;17.50;99.90;;;;;;5072474;28;20029;-77
2021/06/29 00:33:55;;;;;;;9.77;8.80;;;17.40;99.90;;;;;;5074797;28;20429;-78
2021/06/29 00:36:21;;;;;;;13.45;9.10;;;17.40;99.90;;;;;;5074965;28;20078;-77
2021/06/29 00:38:46;;;;;;;8.55;7.70;;;17.40;99.90;;;;;;5073992;28;20074;-77
2021/06/29 00:41:13;;;;;;;13.07;7.47;;;17.40;99.90;;;;;;5072220;28;20024;-78
2021/06/29 00:43:44;;;;;;;11.65;7.53;;;17.30;99.90;;;;;;5072632;28;20035;-77
2021/06/29 00:46:10;;;;;;;9.18;7.97;;;17.30;99.90;;;;;;5073230;28;20024;-76
2021/06/29 00:48:36;;;;;;;10.75;8.70;;;17.40;99.90;;;;;;5072495;28;20455;-77
2021/06/29 00:51:01;;;;;;;12.57;9.40;;;17.50;99.90;;;;;;5072652;28;20027;-77
2021/06/29 00:53:27;;;;;;;13.80;11.30;;;17.50;99.90;;;;;;5072838;28;20024;-77
2021/06/29 00:55:53;;;;;;;15.95;13.15;;;17.70;99.90;;;;;;5075543;28;20567;-77
2021/06/29 00:58:19;;;;;;;24.02;16.10;;;17.80;99.90;;;;;;5072706;28;20123;-77
2021/06/29 01:00:45;;;;;;;18.15;15.30;;;18.00;99.90;;;;;;5073004;28;20024;-77
2021/06/29 01:03:11;;;;;;;18.85;17.08;;;18.00;99.90;;;;;;5073360;28;20025;-77
2021/06/29 01:05:37;;;;;;;16.85;15.00;;;18.00;99.90;;;;;;5072906;28;20035;-77
2021/06/29 01:08:03;;;;;;;18.92;17.00;;;17.90;99.90;;;;;;5072738;28;20494;-76
2021/06/29 01:10:29;;;;;;;22.77;17.02;;;18.00;99.90;;;;;;5069964;28;20028;-77
2021/06/29 01:12:55;;;;;;;19.27;15.52;;;18.00;99.90;;;;;;5087945;28;20698;-77
2021/06/29 01:15:25;;;;;;;17.08;15.38;;;18.00;99.90;;;;;;5072508;28;20051;-77
2021/06/29 01:17:56;;;;;;;16.23;12.23;;;17.90;99.90;;;;;;5072203;28;20440;-77
2021/06/29 01:20:28;;;;;;;11.75;10.27;;;17.70;99.90;;;;;;5056952;28;20507;-77
2021/06/29 01:23:01;;;;;;;13.50;10.02;;;17.60;99.90;;;;;;5052507;28;20092;-77
2021/06/29 01:25:29;;;;;;;;;;;17.60;99.90;;;;;;5052296;28;20035;-77
2021/06/29 01:28:05;;;;;;;12.80;11.30;;;17.80;99.90;;;;;;5052751;28;19905;-77
2021/06/29 01:32:57;;;;;;;14.13;11.70;;;17.90;99.90;;;;;;5052342;28;20021;-77
2021/06/29 01:35:22;;;;;;;14.52;11.82;;;17.90;99.90;;;;;;5052873;28;20021;-77
2021/06/29 01:37:50;;;;;;;17.42;13.50;;;17.80;99.90;;;;;;5052622;28;20074;-77
2021/06/29 01:40:24;;;;;;;14.13;12.27;;;17.90;99.90;;;;;;5051775;28;20421;-76
2021/06/29 01:42:54;;;;;;;12.20;10.75;;;17.90;99.90;;;;;;5052588;28;20021;-77
2021/06/29 01:45:20;;;;;;;12.15;10.13;;;17.80;99.90;;;;;;5052335;28;20029;-77
2021/06/29 01:50:16;;;;;;;12.50;10.73;;;17.80;99.90;;;;;;5061303;22;20061;-70
2021/06/29 01:52:42;;;;;;;13.13;11.85;;;17.70;99.90;;;;;;5008915;28;20018;-71
2021/06/29 01:55:09;;;;;;;16.25;11.35;;;17.80;99.90;;;;;;5010546;28;20026;-70
2021/06/29 01:57:37;;;;;;;16.40;11.60;;;17.80;99.90;;;;;;5027673;28;20090;-70
2021/06/29 02:00:09;;;;;;;14.82;12.73;;;17.80;99.90;;;;;;5015287;28;20368;-71
2021/06/29 02:02:35;;;;;;;12.88;11.60;;;17.80;99.90;;;;;;5009187;28;20464;-71
2021/06/29 02:05:02;;;;;;;11.18;10.07;;;17.90;99.90;;;;;;5008688;28;20113;-71
2021/06/29 02:07:27;;;;;;;13.48;9.40;;;17.80;99.90;;;;;;4991533;28;20375;-71
2021/06/29 02:09:53;;;;;;;9.57;8.75;;;17.80;99.90;;;;;;4998924;28;20038;-71
2021/06/29 02:12:19;;;;;;;8.23;7.40;;;17.70;99.90;;;;;;4989300;28;20027;-72
2021/06/29 02:14:44;;;;;;;7.78;7.07;;;17.60;99.90;;;;;;4989652;28;20499;-71
2021/06/29 02:17:10;;;;;;;7.43;4.55;;;17.60;99.90;;;;;;4990069;28;20473;-71
2021/06/29 02:19:36;;;;;;;6.93;6.18;;;17.40;99.90;;;;;;4989086;28;20040;-71
2021/06/29 02:22:02;;;;;;;5.95;5.50;;;17.50;99.90;;;;;;4990281;28;20109;-72
2021/06/29 02:24:28;;;;;;;6.10;5.60;;;17.50;99.90;;;;;;4992775;28;20373;-71
2021/06/29 02:26:53;;;;;;;10.70;6.15;;;17.40;99.90;;;;;;4992664;28;20040;-71
2021/06/29 02:29:19;;;;;;;4.82;3.40;;;17.50;99.90;;;;;;4992343;28;20041;-71
2021/06/29 02:31:45;;;;;;;3.78;3.47;;;17.40;99.90;;;;;;4992581;28;20042;-71
2021/06/29 02:34:11;;;;;;;7.18;4.53;;;17.40;99.90;;;;;;4992794;28;20066;-71
2021/06/29 02:36:36;;;;;;;6.00;5.40;;;17.50;99.90;;;;;;4990815;28;20084;-71
2021/06/29 02:39:04;;;;;;;7.15;5.07;;;17.60;99.90;;;;;;4992105;28;20030;-71
2021/06/29 02:41:29;;;;;;;3.63;3.42;;;17.50;99.90;;;;;;4991543;28;20023;-72
2021/06/29 02:43:55;;;;;;;3.08;2.88;;;17.40;99.90;;;;;;4992254;28;20029;-71
2021/06/29 02:46:21;;;;;;;5.78;3.88;;;17.30;99.90;;;;;;4992285;28;20083;-71
2021/06/29 02:48:46;;;;;;;3.80;3.38;;;17.30;99.90;;;;;;4991946;28;20400;-71
2021/06/29 02:51:13;;;;;;;6.03;3.40;;;17.30;99.90;;;;;;4991005;28;20054;-71
2021/06/29 02:53:39;;;;;;;3.42;3.15;;;17.30;99.90;;;;;;4991944;28;20026;-71
2021/06/29 02:56:04;;;;;;;4.93;4.22;;;17.30;99.90;;;;;;4992167;28;20026;-71
2021/06/29 02:58:30;;;;;;;7.15;3.72;;;17.40;99.90;;;;;;4992059;28;20476;-71
2021/06/29 03:00:56;;;;;;;7.10;3.55;;;17.30;99.90;;;;;;4991379;28;20034;-71
2021/06/29 03:03:22;;;;;;;4.85;4.43;;;17.30;99.90;;;;;;4991753;28;20034;-71
2021/06/29 03:05:47;;;;;;;7.28;4.93;;;17.30;99.90;;;;;;4991694;28;20388;-71
2021/06/29 03:08:13;;;;;;;9.07;5.47;;;17.40;99.90;;;;;;4991998;28;20525;-71
2021/06/29 03:10:39;;;;;;;7.00;6.35;;;17.50;99.90;;;;;;4991072;28;20030;-71
2021/06/29 03:13:04;;;;;;;6.68;6.10;;;17.50;99.90;;;;;;4991865;28;20022;-71
2021/06/29 03:15:30;;;;;;;7.20;6.50;;;17.50;99.90;;;;;;4974222;28;20476;-71
2021/06/29 03:17:56;;;;;;;7.18;6.50;;;17.50;99.90;;;;;;4991821;28;20022;-71
2021/06/29 03:20:21;;;;;;;6.93;5.97;;;17.50;99.90;;;;;;4990832;28;20070;-71
2021/06/29 03:22:47;;;;;;;5.32;4.85;;;17.40;99.90;;;;;;4992051;28;20068;-71
2021/06/29 03:25:13;;;;;;;5.40;4.60;;;17.30;99.90;;;;;;4992961;28;20030;-72
2021/06/29 03:27:40;;;;;;;7.35;4.75;;;17.10;99.90;;;;;;4992913;28;20030;-71
2021/06/29 03:30:07;;;;;;;4.43;3.70;;;17.20;99.90;;;;;;4992062;28;20101;-71
2021/06/29 03:32:33;;;;;;;8.52;5.22;;;17.10;99.90;;;;;;4992743;28;20023;-72
2021/06/29 03:34:59;;;;;;;6.93;4.38;;;17.20;99.90;;;;;;4991973;28;20400;-71
2021/06/29 03:37:25;;;;;;;3.13;2.90;;;17.20;99.90;;;;;;4991559;28;20036;-71
2021/06/29 03:39:50;;;;;;;4.20;3.35;;;17.00;99.90;;;;;;4990530;28;20018;-72
2021/06/29 03:42:16;;;;;;;4.15;3.78;;;17.10;99.90;;;;;;4991499;28;20072;-71
2021/06/29 03:44:42;;;;;;;4.20;3.80;;;17.10;99.90;;;;;;4991270;28;20026;-71
2021/06/29 03:47:07;;;;;;;6.28;4.07;;;17.10;99.90;;;;;;4991283;28;20434;-71
2021/06/29 03:49:33;;;;;;;4.47;3.85;;;17.20;99.90;;;;;;4990375;28;20475;-71
2021/06/29 03:51:59;;;;;;;8.55;3.35;;;17.20;99.90;;;;;;4990956;28;20026;-71
2021/06/29 03:54:26;;;;;;;4.57;4.07;;;17.20;99.90;;;;;;4991018;28;20030;-71
2021/06/29 03:56:52;;;;;;;7.10;4.00;;;17.30;99.90;;;;;;4991240;28;20029;-71
2021/06/29 03:59:17;;;;;;;3.95;3.30;;;17.30;99.90;;;;;;4991100;28;20018;-71
2021/06/29 04:01:43;;;;;;;6.05;4.30;;;17.30;99.90;;;;;;4990643;28;20050;-71
2021/06/29 04:04:09;;;;;;;4.65;3.97;;;17.20;99.90;;;;;;4991186;28;20033;-71
2021/06/29 04:06:37;;;;;;;4.65;3.78;;;17.20;99.90;;;;;;4990709;28;20057;-70
2021/06/29 04:09:05;;;;;;;3.53;3.30;;;16.90;99.90;;;;;;4990933;28;20027;-70
2021/06/29 04:11:33;;;;;;;3.78;3.08;;;16.80;99.90;;;;;;4990471;28;20365;-71
2021/06/29 04:13:59;;;;;;;3.25;2.38;;;16.70;99.90;;;;;;4990976;28;20083;-71
2021/06/29 04:16:24;;;;;;;3.28;2.83;;;16.80;99.90;;;;;;4983642;28;20014;-74
2021/06/29 04:18:50;;;;;;;2.65;2.42;;;17.60;99.90;;;;;;4995117;28;20602;-72
2021/06/29 04:21:16;;;;;;;2.75;2.55;;;18.50;99.90;;;;;;4990069;28;20444;-72
2021/06/29 04:23:44;;;;;;;1.95;1.85;;;18.30;99.90;;;;;;5086475;28;20488;-72
2021/06/29 04:26:14;;;;;;;2.53;2.33;;;18.10;99.90;;;;;;5093694;28;20035;-70
2021/06/29 04:28:40;;;;;;;2.03;1.83;;;17.90;99.90;;;;;;5101371;28;20039;-72
2021/06/29 04:31:06;;;;;;;2.05;1.80;;;17.60;99.90;;;;;;5099346;28;20046;-69
2021/06/29 04:33:31;;;;;;;2.67;2.10;;;17.30;99.90;;;;;;5101009;28;20456;-71
2021/06/29 04:35:57;;;;;;;4.10;2.65;;;17.30;99.90;;;;;;4994206;28;20049;-71
2021/06/29 04:38:23;;;;;;;3.50;3.30;;;17.20;99.90;;;;;;4990157;28;20438;-71
2021/06/29 04:40:48;;;;;;;2.90;2.70;;;17.10;99.90;;;;;;4989747;28;20026;-71
2021/06/29 04:43:14;;;;;;;3.60;3.30;;;17.00;99.90;;;;;;4990140;28;20066;-70
2021/06/29 04:45:40;;;;;;;9.20;3.40;;;17.20;99.90;;;;;;4989591;28;20022;-70
2021/06/29 04:48:06;;;;;;;4.78;2.70;;;17.20;99.90;;;;;;4989876;28;20022;-70
2021/06/29 04:50:32;;;;;;;4.75;2.97;;;17.20;99.90;;;;;;4971348;28;20095;-71
2021/06/29 04:52:57;;;;;;;3.83;3.28;;;17.10;99.90;;;;;;4989848;28;20480;-72
2021/06/29 04:55:23;;;;;;;6.43;3.15;;;17.00;99.90;;;;;;4990171;28;20098;-71
2021/06/29 04:57:49;;;;;;;4.55;3.20;;;17.10;99.90;;;;;;4989629;28;20031;-71
2021/06/29 05:00:17;;;;;;;3.80;3.00;;;17.30;99.90;;;;;;4988993;28;20026;-70
2021/06/29 05:02:43;;;;;;;4.57;2.88;;;17.40;99.90;;;;;;4989903;28;20441;-72
2021/06/29 05:05:09;;;;;;;3.85;2.80;;;17.50;99.90;;;;;;4989452;28;20527;-70
2021/06/29 05:07:40;;;;;;;3.03;2.60;;;17.40;99.90;;;;;;4989390;28;20066;-72
2021/06/29 05:10:10;;;;;;;4.03;2.80;;;17.40;99.90;;;;;;4979330;28;20105;-76
2021/06/29 05:12:36;;;;;;;4.15;2.92;;;17.30;99.90;;;;;;4991544;28;20062;-73
2021/06/29 05:15:05;;;;;;;3.58;3.28;;;17.20;99.90;;;;;;5053125;28;20038;-76
2021/06/29 05:17:30;;;;;;;5.18;2.78;;;17.20;99.90;;;;;;4983816;28;20022;-73
2021/06/29 05:19:56;;;;;;;3.40;2.90;;;17.10;99.90;;;;;;4989278;28;20042;-72
2021/06/29 05:22:22;;;;;;;7.35;3.28;;;17.20;99.90;;;;;;4989745;28;20416;-73
2021/06/29 05:24:47;;;;;;;7.13;3.92;;;17.20;99.90;;;;;;4989890;28;20503;-69
2021/06/29 05:27:13;;;;;;;4.45;3.55;;;17.10;99.90;;;;;;4972399;28;20027;-73
2021/06/29 05:29:39;;;;;;;6.35;3.70;;;17.10;99.90;;;;;;4989161;28;20035;-72
2021/06/29 05:32:05;;;;;;;4.30;3.10;;;17.20;99.90;;;;;;4972205;28;20031;-74
2021/06/29 05:34:31;;;;;;;4.60;2.95;;;17.20;99.90;;;;;;4991476;28;20491;-72
2021/06/29 05:36:57;;;;;;;4.95;2.88;;;17.20;99.90;;;;;;4987667;28;20029;-73
2021/06/29 05:39:22;;;;;;;3.67;2.50;;;17.30;99.90;;;;;;5003620;28;20088;-72
2021/06/29 05:41:48;;;;;;;5.68;3.10;;;17.40;99.90;;;;;;4989544;28;20026;-74
2021/06/29 05:44:14;;;;;;;6.97;3.10;;;17.50;99.90;;;;;;4989847;28;20026;-74
2021/06/29 05:46:42;;;;;;;3.63;2.80;;;17.70;99.90;;;;;;4989660;28;20031;-73
2021/06/29 05:49:13;;;;;;;4.10;2.67;;;17.80;99.90;;;;;;4989992;28;20038;-74
2021/06/29 05:51:47;;;;;;;3.22;2.55;;;17.90;99.90;;;;;;4971800;28;20061;-74
2021/06/29 05:54:16;;;;;;;2.58;2.38;;;17.80;99.90;;;;;;4989619;28;20040;-73
2021/06/29 05:56:43;;;;;;;3.55;2.90;;;17.60;99.90;;;;;;4989589;28;20095;-73
2021/06/29 05:59:09;;;;;;;5.35;2.35;;;17.70;99.90;;;;;;4996814;28;20015;-74
2021/06/29 06:01:35;;;;;;;3.40;2.42;;;17.60;99.90;;;;;;4990100;28;20470;-72
2021/06/29 06:04:00;;;;;;;11.13;2.85;;;17.50;99.90;;;;;;4993072;28;20109;-72
2021/06/29 06:06:26;;;;;;;2.42;2.20;;;17.70;99.90;;;;;;4988506;28;20180;-72
2021/06/29 06:08:52;;;;;;;6.53;2.60;;;17.70;99.90;;;;;;4987923;28;20022;-72
2021/06/29 06:11:17;;;;;;;2.53;2.33;;;17.80;99.90;;;;;;4990718;28;20109;-72
2021/06/29 06:13:43;;;;;;;3.28;2.53;;;17.70;99.90;;;;;;4989185;28;20080;-72
2021/06/29 06:16:09;;;;;;;3.33;2.70;;;17.90;99.90;;;;;;5044307;28;20028;-72
2021/06/29 06:18:36;;;;;;;3.03;2.67;;;17.80;99.90;;;;;;5091407;28;20538;-72
2021/06/29 06:21:02;;;;;;;2.60;2.40;;;18.00;99.90;;;;;;5090159;28;20027;-72
2021/06/29 06:23:27;;;;;;;2.28;2.03;;;18.00;99.90;;;;;;5091826;28;20097;-73
2021/06/29 06:25:53;;;;;;;6.38;2.80;;;18.20;99.90;;;;;;5091499;28;20485;-73
2021/06/29 06:28:19;;;;;;;4.50;2.80;;;18.00;99.90;;;;;;5036568;28;20026;-72
2021/06/29 06:30:44;;;;;;;3.35;2.40;;;18.00;99.90;;;;;;4988163;28;20068;-71
2021/06/29 06:33:11;;;;;;;4.30;2.90;;;18.10;99.90;;;;;;4989464;28;20038;-73
2021/06/29 06:35:37;;;;;;;9.00;3.22;;;18.10;99.90;;;;;;4988797;28;20022;-72
2021/06/29 06:38:02;;;;;;;4.80;2.90;;;18.10;99.90;;;;;;4989100;28;20037;-72
2021/06/29 06:40:28;;;;;;;3.47;2.78;;;18.10;99.90;;;;;;4988619;28;20029;-72
2021/06/29 06:42:54;;;;;;;4.03;2.60;;;18.30;99.90;;;;;;4989707;28;20046;-71
2021/06/29 06:45:23;;;;;;;4.25;2.70;;;18.40;99.90;;;;;;4971610;28;20485;-72
2021/06/29 06:47:49;;;;;;;4.18;2.20;;;18.50;99.90;;;;;;4972114;28;20086;-71
2021/06/29 06:50:15;;;;;;;4.32;1.92;;;18.40;99.90;;;;;;4989011;28;20027;-73
2021/06/29 06:52:41;;;;;;;2.20;1.95;;;18.40;99.90;;;;;;4989357;28;20026;-72
2021/06/29 06:55:07;;;;;;;3.88;2.15;;;18.50;99.90;;;;;;4989808;28;20035;-73
2021/06/29 06:57:34;;;;;;;3.30;1.90;;;18.60;99.90;;;;;;4988873;28;20404;-71
2021/06/29 06:59:59;;;;;;;4.03;2.60;;;18.70;99.90;;;;;;4987883;28;20067;-73
2021/06/29 07:02:25;;;;;;;2.50;2.30;;;18.90;99.90;;;;;;4988994;28;20054;-73
2021/06/29 07:04:51;;;;;;;3.25;2.20;;;19.00;99.90;;;;;;5044011;28;20028;-72
2021/06/29 07:07:16;;;;;;;2.03;1.85;;;19.10;99.90;;;;;;5091495;28;20036;-72
2021/06/29 07:09:42;;;;;;;2.00;1.90;;;19.30;99.90;;;;;;5094136;28;20028;-71
2021/06/29 07:12:08;;;;;;;1.63;1.50;;;19.30;99.90;;;;;;5094633;28;20032;-73
2021/06/29 07:14:34;;;;;;;3.47;1.75;;;19.30;99.90;;;;;;5094900;28;20453;-73
2021/06/29 07:17:00;;;;;;;1.70;1.60;;;19.30;99.90;;;;;;5094783;28;20051;-72
2021/06/29 07:19:25;;;;;;;1.75;1.63;;;19.40;99.90;;;;;;5034438;28;20109;-71
2021/06/29 07:21:51;;;;;;;2.05;1.95;;;19.40;99.90;;;;;;4991946;28;20011;-72
2021/06/29 07:24:17;;;;;;;2.47;2.28;;;19.20;99.90;;;;;;4992224;28;20061;-72
2021/06/29 07:26:42;;;;;;;2.78;1.90;;;19.10;99.90;;;;;;4992011;28;20453;-72
2021/06/29 07:29:08;;;;;;;3.45;1.95;;;19.10;99.90;;;;;;4974436;28;20041;-72
2021/06/29 07:31:34;;;;;;;2.22;2.03;;;19.40;99.90;;;;;;4992445;28;20109;-73
2021/06/29 07:34:00;;;;;;;2.58;2.00;;;19.70;99.90;;;;;;4991318;28;20030;-72
2021/06/29 07:36:26;;;;;;;3.30;1.83;;;20.00;99.90;;;;;;4991881;28;20061;-73
2021/06/29 07:38:54;;;;;;;2.33;1.92;;;20.10;99.90;;;;;;4991887;28;20445;-72
2021/06/29 07:41:20;;;;;;;4.90;2.15;;;20.10;99.90;;;;;;4973829;28;20130;-73
2021/06/29 07:43:46;;;;;;;2.20;2.00;;;20.30;99.90;;;;;;4995293;28;20030;-73
2021/06/29 07:46:12;;;;;;;2.65;1.90;;;20.60;99.90;;;;;;4995861;28;20038;-75
2021/06/29 07:48:37;;;;;;;3.30;1.40;;;20.70;99.90;;;;;;4996343;28;20093;-73
2021/06/29 07:51:06;;;;;;;2.00;1.35;;;20.50;99.90;;;;;;4993136;22;20039;-79
2021/06/29 07:53:32;;;;;;;1.50;1.40;;;20.40;99.90;;;;;;4956672;28;20039;-76
2021/06/29 07:55:57;;;;;;;2.00;1.40;;;20.40;99.90;;;;;;4972202;28;20084;-77
2021/06/29 07:58:23;;;;;;;1.40;1.30;;;20.60;99.90;;;;;;4983114;28;20154;-78
2021/06/29 08:00:49;;;;;;;1.33;1.23;;;20.80;99.90;;;;;;4975362;28;20113;-77
2021/06/29 08:03:15;;;;;;;3.40;1.35;;;21.20;99.90;;;;;;4992657;28;20030;-78
2021/06/29 08:05:41;;;;;;;1.27;1.17;;;20.90;99.90;;;;;;4976780;28;20507;-78
2021/06/29 08:08:08;;;;;;;1.85;1.00;;;20.90;99.90;;;;;;4993748;28;20026;-79
2021/06/29 08:10:35;;;;;;;5.40;1.23;;;20.80;99.90;;;;;;4993662;28;20035;-78
2021/06/29 08:13:01;;;;;;;4.43;1.40;;;20.70;99.90;;;;;;4995474;28;20479;-76
2021/06/29 08:15:27;;;;;;;4.20;1.58;;;21.00;99.90;;;;;;4992531;28;20026;-77
2021/06/29 08:17:53;;;;;;;1.10;1.10;;;21.40;99.90;;;;;;4974789;28;20068;-77
2021/06/29 08:20:20;;;;;;;1.67;1.10;;;21.20;99.90;;;;;;4974673;28;20029;-77
2021/06/29 08:22:47;;;;;;;1.80;1.20;;;21.40;99.90;;;;;;4994469;28;20038;-75
2021/06/29 08:25:13;;;;;;;0.85;0.85;;;21.80;99.90;;;;;;4973431;28;20026;-76
2021/06/29 08:27:39;;;;;;;2.47;0.80;;;22.20;99.90;;;;;;4987157;28;20160;-78
2021/06/29 08:30:08;;;;;;;1.00;0.90;;;22.30;99.90;;;;;;4970543;28;20465;-76
2021/06/29 08:32:34;;;;;;;1.75;0.75;;;22.40;99.90;;;;;;4976142;28;20324;-76
2021/06/29 08:35:00;;;;;;;0.90;0.90;;;22.20;99.90;;;;;;4960458;28;20105;-77
2021/06/29 08:37:26;;;;;;;1.00;0.80;;;22.20;99.90;;;;;;4974868;28;20062;-78
2021/06/29 08:39:54;;;;;;;2.38;1.00;;;22.10;99.90;;;;;;4953880;28;20074;-79
2021/06/29 08:42:21;;;;;;;2.35;0.90;;;22.30;99.90;;;;;;4938560;29;20070;-76
2021/06/29 08:44:47;;;;;;;0.80;0.80;;;22.90;99.90;;;;;;5023784;28;20374;-78
2021/06/29 08:47:12;;;;;;;3.40;0.90;;;23.90;99.90;;;;;;4957101;28;20034;-77
2021/06/29 08:49:38;;;;;;;2.17;1.00;;;24.10;99.90;;;;;;4958207;28;20102;-78
2021/06/29 08:52:05;;;;;;;0.85;0.80;;;23.00;99.90;;;;;;4955688;28;20047;-77
2021/06/29 08:54:32;;;;;;;0.90;0.90;;;22.70;99.90;;;;;;5024231;28;20110;-77
2021/06/29 08:56:58;;;;;;;5.53;0.95;;;22.70;99.90;;;;;;4952513;29;20028;-76
2021/06/29 08:59:24;;;;;;;3.05;0.82;;;23.20;99.90;;;;;;5037853;28;20114;-77
2021/06/29 09:01:50;;;;;;;1.05;0.80;;;23.90;99.90;;;;;;4971462;28;20043;-77
2021/06/29 09:04:35;;;;;;;1.58;0.80;;;25.20;99.90;;;;;;4958194;28;20080;-77
2021/06/29 09:07:19;;;;;;;1.05;0.80;;;24.90;99.90;;;;;;4970667;28;20027;-77
2021/06/29 09:09:54;;;;;;;3.63;1.27;;;24.20;99.90;;;;;;4971908;28;20077;-76
2021/06/29 09:12:47;;;;;;;2.15;0.90;;;23.90;99.90;;;;;;4972231;28;20770;-77
2021/06/29 09:15:33;;;;;;;1.63;0.77;;;23.50;99.90;;;;;;4970226;28;20030;-77
2021/06/29 09:18:04;;;;;;;2.03;0.95;;;23.50;99.90;;;;;;4971559;28;20042;-76
2021/06/29 09:20:33;;;;;;;1.10;1.00;;;23.70;99.90;;;;;;4971408;28;20027;-77
2021/06/29 09:23:14;;;;;;;2.95;0.82;;;23.70;99.90;;;;;;4970505;28;20116;-76
2021/06/29 09:25:42;;;;;;;1.10;0.73;;;25.10;99.90;;;;;;4971118;28;20456;-77
2021/06/29 09:28:08;;;;;;;1.50;1.02;;;25.10;99.90;;;;;;4978162;28;20031;-77
2021/06/29 09:30:46;;;;;;;3.58;1.00;;;24.90;99.90;;;;;;4989336;28;20033;-77
2021/06/29 09:33:22;;;;;;;0.80;0.80;;;24.80;99.90;;;;;;4989586;28;20026;-76
2021/06/29 09:35:52;;;;;;;0.80;0.80;;;25.20;99.90;;;;;;4989889;28;20122;-77
2021/06/29 09:38:23;;;;;;;1.10;0.95;;;24.00;99.90;;;;;;4990045;28;20023;-77
2021/06/29 09:41:00;;;;;;;1.58;1.35;;;24.10;99.90;;;;;;4973771;28;20061;-78
2021/06/29 09:43:29;;;;;;;1.27;1.02;;;24.80;99.90;;;;;;4992375;28;20055;-77
2021/06/29 09:46:00;;;;;;;4.50;1.05;;;25.40;99.90;;;;;;4991003;28;20054;-77
2021/06/29 09:48:36;;;;;;;0.68;0.68;;;26.10;99.90;;;;;;4976713;28;20060;-76
2021/06/29 09:51:09;;;;;;;2.63;0.68;;;25.60;99.90;;;;;;4999061;28;20030;-77
2021/06/29 09:53:40;;;;;;;0.70;0.70;;;25.20;99.90;;;;;;4996981;28;20046;-76
2021/06/29 09:56:23;;;;;;;1.15;0.90;;;25.10;99.90;;;;;;4976783;28;20027;-76
2021/06/29 09:58:52;;;;;;;2.35;0.90;;;25.60;99.90;;;;;;4978778;28;20030;-79
2021/06/29 10:01:20;;;;;;;2.50;0.90;;;27.10;99.90;;;;;;4979091;28;20060;-77
2021/06/29 10:03:51;;;;;;;1.75;0.80;;;27.90;99.90;;;;;;4978552;28;20110;-78
2021/06/29 10:06:23;;;;;;;1.48;0.70;;;28.40;99.90;;;;;;4975597;28;20031;-75
2021/06/29 10:08:53;;;;;;;2.78;0.70;;;28.10;99.90;;;;;;4977919;28;20055;-76
2021/06/29 10:11:32;;;;;;;3.42;0.80;;;27.50;99.90;;;;;;4974444;28;20027;-74
2021/06/29 10:14:08;;;;;;;1.55;0.70;;;27.10;99.90;;;;;;4970230;28;20516;-72
2021/06/29 10:16:44;;;;;;;0.70;0.70;;;27.50;99.90;;;;;;4968574;28;20027;-73
2021/06/29 10:21:50;;;;;;;2.45;0.88;;;28.10;99.90;;;;;;4969437;28;20039;-75
2021/06/29 10:24:22;;;;;;;1.25;1.10;;;27.70;99.90;;;;;;4972920;28;20019;-75
2021/06/29 10:26:51;;;;;;;;;;;27.00;99.90;;;;;;4973605;28;20050;-74
2021/06/29 10:29:20;;;;;;;1.17;0.98;;;25.50;99.90;;;;;;4986712;28;19906;-75
2021/06/29 10:31:49;;;;;;;1.02;0.80;;;25.70;99.90;;;;;;4989090;28;20065;-74
2021/06/29 10:34:16;;;;;;;2.03;0.80;;;25.90;99.90;;;;;;4987672;28;20037;-75
2021/06/29 10:36:49;;;;;;;1.02;0.80;;;26.40;99.90;;;;;;4989912;28;20027;-75
2021/06/29 10:39:18;;;;;;;0.70;0.70;;;26.60;99.90;;;;;;4988713;28;20026;-73
2021/06/29 10:41:48;;;;;;;0.80;0.70;;;26.50;99.90;;;;;;4988155;28;20027;-78
2021/06/29 10:44:16;;;;;;;0.80;0.70;;;27.30;99.90;;;;;;4991919;28;20037;-78
2021/06/29 10:46:46;;;;;;;1.40;0.80;;;27.50;99.90;;;;;;4994092;28;20026;-77
2021/06/29 10:49:39;;;;;;;4.70;0.65;;;27.60;99.90;;;;;;4993092;28;20050;-76
2021/06/29 10:52:23;;;;;;;1.23;0.70;;;28.00;99.90;;;;;;4954077;28;20035;-76
2021/06/29 10:55:22;;;;;;;0.80;0.80;;;27.40;99.80;;;;;;4953570;28;20110;-75
2021/06/29 10:57:59;;;;;;;0.75;0.65;;;27.50;99.90;;;;;;4957867;28;20026;-76
2021/06/29 11:00:27;;;;;;;1.67;0.63;;;28.10;99.90;;;;;;4972886;28;20046;-75
2021/06/29 11:02:56;;;;;;;0.52;0.52;;;28.70;99.90;;;;;;5058784;28;20031;-77
2021/06/29 11:05:27;;;;;;;0.60;0.55;;;28.80;98.40;;;;;;4974847;28;20085;-77
2021/06/29 11:08:12;;;;;;;0.88;0.80;;;29.10;98.40;;;;;;4970606;28;20516;-77
2021/06/29 11:10:40;;;;;;;0.80;0.80;;;29.40;97.70;;;;;;4971051;28;20045;-77
2021/06/29 11:13:08;;;;;;;1.73;0.60;;;29.00;97.80;;;;;;4970790;28;20026;-75
2021/06/29 11:15:53;;;;;;;0.93;0.70;;;28.30;97.40;;;;;;4972989;28;20435;-77
2021/06/29 11:18:41;;;;;;;1.13;1.00;;;28.20;99.90;;;;;;4972416;28;20428;-75
2021/06/29 11:21:11;;;;;;;0.70;0.68;;;28.20;98.60;;;;;;4973561;28;20023;-77
2021/06/29 11:23:38;;;;;;;1.17;0.60;;;28.60;99.90;;;;;;4973388;28;20476;-75
2021/06/29 11:26:13;;;;;;;2.92;0.80;;;28.80;98.70;;;;;;4974133;28;20030;-75
2021/06/29 11:28:44;;;;;;;2.33;1.08;;;28.70;99.50;;;;;;4986196;28;20034;-77
2021/06/29 11:31:19;;;;;;;;;;;28.80;98.40;;;;;;4992452;28;20026;-76
2021/06/29 11:33:51;;;;;;;2.38;0.80;;;27.80;99.30;;;;;;4993844;28;19913;-77
2021/06/29 11:36:26;;;;;;;1.10;1.00;;;27.90;99.50;;;;;;4992749;28;20038;-77
2021/06/29 11:39:10;;;;;;;1.52;0.75;;;27.40;99.90;;;;;;4994055;28;20030;-78
2021/06/29 11:41:37;;;;;;;0.70;0.70;;;27.30;99.90;;;;;;4993311;28;20026;-75
2021/06/29 11:44:06;;;;;;;0.75;0.75;;;27.30;99.90;;;;;;4993608;28;20022;-76
2021/06/29 11:46:51;;;;;;;0.75;0.70;;;27.20;99.90;;;;;;4994146;28;20383;-77
2021/06/29 11:49:35;;;;;;;0.75;0.75;;;27.00;99.90;;;;;;4995310;28;20030;-75
2021/06/29 11:52:07;;;;;;;0.70;0.70;;;26.90;99.90;;;;;;4995327;28;20034;-76
2021/06/29 11:54:43;;;;;;;3.05;0.85;;;26.90;99.90;;;;;;5003218;28;20030;-74
2021/06/29 11:57:34;;;;;;;0.65;0.65;;;26.80;99.90;;;;;;5008214;28;20015;-74
2021/06/29 12:00:18;;;;;;;1.00;0.90;;;26.80;99.90;;;;;;5047575;28;20034;-75
2021/06/29 12:02:44;;;;;;;0.90;0.90;;;26.80;99.90;;;;;;4958317;28;20277;-76
2021/06/29 12:05:19;;;;;;;1.92;0.90;;;26.80;99.90;;;;;;4971447;28;20023;-77
2021/06/29 12:07:54;;;;;;;2.75;1.17;;;26.70;99.90;;;;;;4984327;28;20031;-74
2021/06/29 12:10:23;;;;;;;1.58;1.08;;;26.50;99.90;;;;;;4979444;28;20420;-77
2021/06/29 12:13:11;;;;;;;3.50;0.73;;;26.60;99.90;;;;;;4978001;28;20041;-75
2021/06/29 12:15:45;;;;;;;3.00;1.17;;;26.70;99.90;;;;;;4976864;28;20031;-76
2021/06/29 12:18:19;;;;;;;0.90;0.90;;;26.20;99.90;;;;;;4976038;28;20031;-77
2021/06/29 12:20:54;;;;;;;1.00;0.85;;;26.20;99.90;;;;;;4976240;28;20144;-76
2021/06/29 12:23:29;;;;;;;2.83;1.10;;;25.80;99.90;;;;;;4974571;28;20059;-76
2021/06/29 12:26:08;;;;;;;1.20;1.10;;;25.30;99.90;;;;;;4974310;28;20026;-75
2021/06/29 12:28:37;;;;;;;1.08;1.02;;;24.70;99.90;;;;;;4973707;28;20500;-75
2021/06/29 12:31:08;;;;;;;3.10;1.17;;;24.30;99.90;;;;;;4971177;28;20160;-76
2021/06/29 12:33:39;;;;;;;1.38;0.90;;;24.00;99.90;;;;;;4971436;28;20019;-73
2021/06/29 12:36:08;;;;;;;1.00;1.00;;;23.60;99.90;;;;;;4971892;28;20031;-77
2021/06/29 12:38:40;;;;;;;3.72;0.70;;;23.50;99.90;;;;;;4982760;28;20062;-75
2021/06/29 12:41:06;;;;;;;;;;;22.70;99.90;;;;;;4973543;28;20015;-76
2021/06/29 12:43:38;;;;;;;0.22;0.20;;;21.30;99.90;;;;;;4974838;28;20000;-79
2021/06/29 12:46:18;;;;;;;0.33;0.20;;;20.40;99.90;;;;;;4975138;28;20101;-77
2021/06/29 12:48:58;;;;;;;1.77;0.20;;;19.70;99.90;;;;;;4973918;28;20281;-78
2021/06/29 12:51:24;;;;;;;0.75;0.50;;;18.80;99.90;;;;;;4974827;28;20041;-76
2021/06/29 12:53:58;;;;;;;2.85;1.10;;;18.30;99.90;;;;;;4981472;28;20481;-76
2021/06/29 12:56:34;;;;;;;3.58;0.65;;;18.00;99.90;;;;;;4974553;28;20045;-76
2021/06/29 12:59:00;;;;;;;6.72;1.10;;;17.60;99.90;;;;;;4986713;28;20018;-77
2021/06/29 13:01:26;;;;;;;4.50;0.80;;;17.30;99.90;;;;;;4993785;28;20027;-82